sensor_id;sensor_type;location;lat;lon;timestamp;temperature;humidity
18388;DHT22;9320;50.256;19.026;2023-06-22T00:00:54;21.30;99.90
18388;DHT22;9320;50.256;19.026;2023-06-22T00:03:23;21.20;99.90
18388;DHT22;9320;50.256;19.026;2023-06-22T00:05:52;21.20;99.90
18388;DHT22;9320;50.256;19.026;2023-06-22T00:08:20;21.10;99.90
18388;DHT22;9320;50.256;19.026;2023-06-22T00:10:50;21.10;99.90
18388;DHT22;9320;50.256;19.026;2023-06-22T00:13:18;21.10;99.90
18388;DHT22;9320;50.256;19.026;2023-06-22T00:15:46;21.10;99.90
18388;DHT22;9320;50.256;19.026;2023-06-22T00:18:14;21.00;99.90
18388;DHT22;9320;50.256;19.026;2023-06-22T00:20:42;21.00;99.90
18388;DHT22;9320;50.256;19.026;2023-06-22T00:23:12;21.00;99.90
18388;DHT22;9320;50.256;19.026;2023-06-22T00:25:44;21.00;99.90
18388;DHT22;9320;50.256;19.026;2023-06-22T00:28:13;21.00;99.90
18388;DHT22;9320;50.256;19.026;2023-06-22T00:30:41;20.90;99.90
18388;DHT22;9320;50.256;19.026;2023-06-22T00:33:09;20.80;99.90
18388;DHT22;9320;50.256;19.026;2023-06-22T00:35:37;20.80;99.90
18388;DHT22;9320;50.256;19.026;2023-06-22T00:38:08;20.80;99.90
18388;DHT22;9320;50.256;19.026;2023-06-22T00:40:36;20.80;99.90
18388;DHT22;9320;50.256;19.026;2023-06-22T00:43:05;20.80;99.90
18388;DHT22;9320;50.256;19.026;2023-06-22T00:45:35;20.80;99.90
18388;DHT22;9320;50.256;19.026;2023-06-22T00:48:03;20.80;99.90
18388;DHT22;9320;50.256;19.026;2023-06-22T00:50:33;20.80;99.90
18388;DHT22;9320;50.256;19.026;2023-06-22T00:53:03;20.80;99.90
18388;DHT22;9320;50.256;19.026;2023-06-22T00:55:37;20.80;99.90
18388;DHT22;9320;50.256;19.026;2023-06-22T00:58:06;20.80;99.90
18388;DHT22;9320;50.256;19.026;2023-06-22T01:00:39;20.80;99.90
18388;DHT22;9320;50.256;19.026;2023-06-22T01:03:08;20.80;99.90
18388;DHT22;9320;50.256;19.026;2023-06-22T01:05:38;20.80;99.90
18388;DHT22;9320;50.256;19.026;2023-06-22T01:08:16;20.80;99.90
18388;DHT22;9320;50.256;19.026;2023-06-22T01:10:50;20.70;99.90
18388;DHT22;9320;50.256;19.026;2023-06-22T01:13:26;20.70;99.90
18388;DHT22;9320;50.256;19.026;2023-06-22T01:16:01;20.50;99.90
18388;DHT22;9320;50.256;19.026;2023-06-22T01:18:31;20.60;99.90
18388;DHT22;9320;50.256;19.026;2023-06-22T01:21:01;20.60;99.90
18388;DHT22;9320;50.256;19.026;2023-06-22T01:23:33;20.60;99.90
18388;DHT22;9320;50.256;19.026;2023-06-22T01:26:08;20.60;99.90
18388;DHT22;9320;50.256;19.026;2023-06-22T01:28:45;20.60;99.90
18388;DHT22;9320;50.256;19.026;2023-06-22T01:31:16;20.60;99.90
18388;DHT22;9320;50.256;19.026;2023-06-22T01:33:48;20.60;99.90
18388;DHT22;9320;50.256;19.026;2023-06-22T01:36:17;20.60;99.90
18388;DHT22;9320;50.256;19.026;2023-06-22T01:38:46;20.60;99.90
18388;DHT22;9320;50.256;19.026;2023-06-22T01:41:16;20.60;99.90
18388;DHT22;9320;50.256;19.026;2023-06-22T01:43:46;20.60;99.90
18388;DHT22;9320;50.256;19.026;2023-06-22T01:46:14;20.60;99.90
18388;DHT22;9320;50.256;19.026;2023-06-22T01:48:46;20.50;99.90
18388;DHT22;9320;50.256;19.026;2023-06-22T01:51:14;20.60;99.90
18388;DHT22;9320;50.256;19.026;2023-06-22T01:53:43;20.60;99.90
18388;DHT22;9320;50.256;19.026;2023-06-22T01:56:11;20.50;99.90
18388;DHT22;9320;50.256;19.026;2023-06-22T01:58:54;20.50;99.90
18388;DHT22;9320;50.256;19.026;2023-06-22T02:01:28;20.50;99.90
18388;DHT22;9320;50.256;19.026;2023-06-22T02:04:03;20.50;99.90
18388;DHT22;9320;50.256;19.026;2023-06-22T02:06:34;20.50;99.90
18388;DHT22;9320;50.256;19.026;2023-06-22T02:09:08;20.50;99.90
18388;DHT22;9320;50.256;19.026;2023-06-22T02:11:37;20.40;99.90
18388;DHT22;9320;50.256;19.026;2023-06-22T02:14:08;20.40;99.90
18388;DHT22;9320;50.256;19.026;2023-06-22T02:16:37;20.40;99.90
18388;DHT22;9320;50.256;19.026;2023-06-22T02:19:05;20.40;99.90
18388;DHT22;9320;50.256;19.026;2023-06-22T02:21:33;20.40;99.90
18388;DHT22;9320;50.256;19.026;2023-06-22T02:24:02;20.40;99.90
18388;DHT22;9320;50.256;19.026;2023-06-22T02:26:30;20.40;99.90
18388;DHT22;9320;50.256;19.026;2023-06-22T02:28:59;20.40;99.90
18388;DHT22;9320;50.256;19.026;2023-06-22T02:31:28;20.40;99.90
18388;DHT22;9320;50.256;19.026;2023-06-22T02:33:58;20.40;99.90
18388;DHT22;9320;50.256;19.026;2023-06-22T02:36:26;20.40;99.90
18388;DHT22;9320;50.256;19.026;2023-06-22T02:38:58;20.30;99.90
18388;DHT22;9320;50.256;19.026;2023-06-22T02:41:28;20.30;99.90
18388;DHT22;9320;50.256;19.026;2023-06-22T02:43:56;20.30;99.90
18388;DHT22;9320;50.256;19.026;2023-06-22T02:46:24;20.30;99.90
18388;DHT22;9320;50.256;19.026;2023-06-22T02:48:53;20.30;99.90
18388;DHT22;9320;50.256;19.026;2023-06-22T02:51:21;20.20;99.90
18388;DHT22;9320;50.256;19.026;2023-06-22T02:53:49;20.20;99.90
18388;DHT22;9320;50.256;19.026;2023-06-22T02:56:18;20.30;99.90
18388;DHT22;9320;50.256;19.026;2023-06-22T02:58:51;20.20;99.90
18388;DHT22;9320;50.256;19.026;2023-06-22T03:01:19;20.20;99.90
18388;DHT22;9320;50.256;19.026;2023-06-22T03:03:51;20.30;99.90
18388;DHT22;9320;50.256;19.026;2023-06-22T03:06:21;20.30;99.90
18388;DHT22;9320;50.256;19.026;2023-06-22T03:08:50;20.30;99.90
18388;DHT22;9320;50.256;19.026;2023-06-22T03:11:18;20.40;99.90
18388;DHT22;9320;50.256;19.026;2023-06-22T03:13:46;20.40;99.90
18388;DHT22;9320;50.256;19.026;2023-06-22T03:16:14;20.50;99.90
18388;DHT22;9320;50.256;19.026;2023-06-22T03:18:42;20.50;99.90
18388;DHT22;9320;50.256;19.026;2023-06-22T03:21:10;20.50;99.90
18388;DHT22;9320;50.256;19.026;2023-06-22T03:23:40;20.50;99.90
18388;DHT22;9320;50.256;19.026;2023-06-22T03:26:08;20.50;99.90
18388;DHT22;9320;50.256;19.026;2023-06-22T03:28:37;20.50;99.90
18388;DHT22;9320;50.256;19.026;2023-06-22T03:31:05;20.50;99.90
18388;DHT22;9320;50.256;19.026;2023-06-22T03:33:34;20.50;99.90
18388;DHT22;9320;50.256;19.026;2023-06-22T03:36:02;20.60;99.90
18388;DHT22;9320;50.256;19.026;2023-06-22T03:38:31;20.70;99.90
18388;DHT22;9320;50.256;19.026;2023-06-22T03:41:00;20.70;99.90
18388;DHT22;9320;50.256;19.026;2023-06-22T03:43:28;20.80;99.90
18388;DHT22;9320;50.256;19.026;2023-06-22T03:45:56;20.90;99.90
18388;DHT22;9320;50.256;19.026;2023-06-22T03:48:24;20.80;99.90
18388;DHT22;9320;50.256;19.026;2023-06-22T03:50:52;20.80;99.90
18388;DHT22;9320;50.256;19.026;2023-06-22T03:53:20;20.80;99.90
18388;DHT22;9320;50.256;19.026;2023-06-22T03:55:49;20.80;99.90
18388;DHT22;9320;50.256;19.026;2023-06-22T03:58:20;20.80;99.90
18388;DHT22;9320;50.256;19.026;2023-06-22T04:00:48;20.80;99.90
18388;DHT22;9320;50.256;19.026;2023-06-22T04:03:18;20.80;99.90
18388;DHT22;9320;50.256;19.026;2023-06-22T04:05:47;20.80;99.90
18388;DHT22;9320;50.256;19.026;2023-06-22T04:08:15;20.90;99.90
18388;DHT22;9320;50.256;19.026;2023-06-22T04:10:43;20.90;99.90
18388;DHT22;9320;50.256;19.026;2023-06-22T04:13:11;21.00;99.90
18388;DHT22;9320;50.256;19.026;2023-06-22T04:15:41;21.00;99.90
18388;DHT22;9320;50.256;19.026;2023-06-22T04:18:09;20.90;99.90
18388;DHT22;9320;50.256;19.026;2023-06-22T04:20:37;21.00;99.90
18388;DHT22;9320;50.256;19.026;2023-06-22T04:23:05;21.00;99.90
18388;DHT22;9320;50.256;19.026;2023-06-22T04:25:33;21.10;99.90
18388;DHT22;9320;50.256;19.026;2023-06-22T04:28:01;21.10;99.90
18388;DHT22;9320;50.256;19.026;2023-06-22T04:30:32;21.20;99.90
18388;DHT22;9320;50.256;19.026;2023-06-22T04:33:02;21.20;99.90
18388;DHT22;9320;50.256;19.026;2023-06-22T04:35:30;21.30;99.90
18388;DHT22;9320;50.256;19.026;2023-06-22T04:37:58;21.30;99.90
18388;DHT22;9320;50.256;19.026;2023-06-22T04:40:26;21.40;99.90
18388;DHT22;9320;50.256;19.026;2023-06-22T04:42:55;21.40;99.90
18388;DHT22;9320;50.256;19.026;2023-06-22T04:45:23;21.50;99.90
18388;DHT22;9320;50.256;19.026;2023-06-22T04:47:51;21.50;99.90
18388;DHT22;9320;50.256;19.026;2023-06-22T04:50:20;21.60;99.90
18388;DHT22;9320;50.256;19.026;2023-06-22T04:52:51;21.70;99.90
18388;DHT22;9320;50.256;19.026;2023-06-22T04:55:20;21.70;99.90
18388;DHT22;9320;50.256;19.026;2023-06-22T04:57:48;21.80;99.90
18388;DHT22;9320;50.256;19.026;2023-06-22T05:00:18;21.90;99.90
18388;DHT22;9320;50.256;19.026;2023-06-22T05:02:46;22.10;99.90
18388;DHT22;9320;50.256;19.026;2023-06-22T05:05:15;22.30;99.90
18388;DHT22;9320;50.256;19.026;2023-06-22T05:07:46;22.30;99.90
18388;DHT22;9320;50.256;19.026;2023-06-22T05:10:17;22.30;99.90
18388;DHT22;9320;50.256;19.026;2023-06-22T05:12:46;22.30;99.90
18388;DHT22;9320;50.256;19.026;2023-06-22T05:15:14;22.40;99.90
18388;DHT22;9320;50.256;19.026;2023-06-22T05:17:42;22.50;99.90
18388;DHT22;9320;50.256;19.026;2023-06-22T05:20:13;22.40;99.90
18388;DHT22;9320;50.256;19.026;2023-06-22T05:22:46;22.40;99.90
18388;DHT22;9320;50.256;19.026;2023-06-22T05:25:14;22.50;99.90
18388;DHT22;9320;50.256;19.026;2023-06-22T05:27:42;22.60;99.90
18388;DHT22;9320;50.256;19.026;2023-06-22T05:30:11;22.60;99.90
18388;DHT22;9320;50.256;19.026;2023-06-22T05:32:39;22.80;99.90
18388;DHT22;9320;50.256;19.026;2023-06-22T05:35:08;22.90;99.90
18388;DHT22;9320;50.256;19.026;2023-06-22T05:37:36;23.10;99.90
18388;DHT22;9320;50.256;19.026;2023-06-22T05:40:07;23.30;99.90
18388;DHT22;9320;50.256;19.026;2023-06-22T05:42:36;23.40;99.90
18388;DHT22;9320;50.256;19.026;2023-06-22T05:45:05;23.60;99.90
18388;DHT22;9320;50.256;19.026;2023-06-22T05:47:33;23.70;99.90
18388;DHT22;9320;50.256;19.026;2023-06-22T05:50:01;23.80;99.90
18388;DHT22;9320;50.256;19.026;2023-06-22T05:52:33;23.90;99.90
18388;DHT22;9320;50.256;19.026;2023-06-22T05:55:02;24.00;99.90
18388;DHT22;9320;50.256;19.026;2023-06-22T05:57:31;24.00;99.90
18388;DHT22;9320;50.256;19.026;2023-06-22T05:59:59;24.40;99.90
18388;DHT22;9320;50.256;19.026;2023-06-22T06:02:27;24.50;99.90
18388;DHT22;9320;50.256;19.026;2023-06-22T06:04:56;24.70;99.90
18388;DHT22;9320;50.256;19.026;2023-06-22T06:07:24;24.70;99.90
18388;DHT22;9320;50.256;19.026;2023-06-22T06:09:53;25.00;99.90
18388;DHT22;9320;50.256;19.026;2023-06-22T06:12:21;25.40;99.90
18388;DHT22;9320;50.256;19.026;2023-06-22T06:14:50;25.30;99.90
18388;DHT22;9320;50.256;19.026;2023-06-22T06:17:20;25.30;99.90
18388;DHT22;9320;50.256;19.026;2023-06-22T06:19:48;25.40;99.90
18388;DHT22;9320;50.256;19.026;2023-06-22T06:22:16;25.50;99.90
18388;DHT22;9320;50.256;19.026;2023-06-22T06:24:45;25.50;99.90
18388;DHT22;9320;50.256;19.026;2023-06-22T06:27:14;25.50;99.90
18388;DHT22;9320;50.256;19.026;2023-06-22T06:29:42;25.60;99.90
18388;DHT22;9320;50.256;19.026;2023-06-22T06:32:13;25.60;99.90
18388;DHT22;9320;50.256;19.026;2023-06-22T06:34:41;25.40;99.90
18388;DHT22;9320;50.256;19.026;2023-06-22T06:37:10;25.40;99.90
18388;DHT22;9320;50.256;19.026;2023-06-22T06:39:38;25.40;99.90
18388;DHT22;9320;50.256;19.026;2023-06-22T06:42:08;25.30;99.90
18388;DHT22;9320;50.256;19.026;2023-06-22T06:44:37;25.20;99.90
18388;DHT22;9320;50.256;19.026;2023-06-22T06:47:06;25.00;99.90
18388;DHT22;9320;50.256;19.026;2023-06-22T06:49:35;25.00;99.90
18388;DHT22;9320;50.256;19.026;2023-06-22T06:52:04;24.90;99.90
18388;DHT22;9320;50.256;19.026;2023-06-22T06:54:32;25.00;99.90
18388;DHT22;9320;50.256;19.026;2023-06-22T06:57:00;25.10;99.90
18388;DHT22;9320;50.256;19.026;2023-06-22T06:59:29;25.00;99.90
18388;DHT22;9320;50.256;19.026;2023-06-22T07:01:57;25.20;99.90
18388;DHT22;9320;50.256;19.026;2023-06-22T07:04:25;25.40;99.90
18388;DHT22;9320;50.256;19.026;2023-06-22T07:06:55;25.50;99.90
18388;DHT22;9320;50.256;19.026;2023-06-22T07:09:23;25.70;99.90
18388;DHT22;9320;50.256;19.026;2023-06-22T07:11:51;25.80;99.90
18388;DHT22;9320;50.256;19.026;2023-06-22T07:14:19;25.70;99.90
18388;DHT22;9320;50.256;19.026;2023-06-22T07:16:47;25.80;99.90
18388;DHT22;9320;50.256;19.026;2023-06-22T07:19:15;25.50;99.90
18388;DHT22;9320;50.256;19.026;2023-06-22T07:21:43;25.60;99.90
18388;DHT22;9320;50.256;19.026;2023-06-22T07:24:13;25.50;99.90
18388;DHT22;9320;50.256;19.026;2023-06-22T07:26:41;25.50;99.90
18388;DHT22;9320;50.256;19.026;2023-06-22T07:29:12;25.70;99.60
18388;DHT22;9320;50.256;19.026;2023-06-22T07:31:40;25.70;97.20
18388;DHT22;9320;50.256;19.026;2023-06-22T07:34:08;25.70;95.70
18388;DHT22;9320;50.256;19.026;2023-06-22T07:36:36;25.80;95.30
18388;DHT22;9320;50.256;19.026;2023-06-22T07:39:04;26.40;94.30
18388;DHT22;9320;50.256;19.026;2023-06-22T07:41:34;27.40;91.00
18388;DHT22;9320;50.256;19.026;2023-06-22T07:44:02;28.20;86.20
18388;DHT22;9320;50.256;19.026;2023-06-22T07:46:30;29.40;83.70
18388;DHT22;9320;50.256;19.026;2023-06-22T07:48:58;30.40;78.30
18388;DHT22;9320;50.256;19.026;2023-06-22T07:51:28;30.80;72.50
18388;DHT22;9320;50.256;19.026;2023-06-22T07:53:56;32.10;67.40
18388;DHT22;9320;50.256;19.026;2023-06-22T07:56:24;33.80;65.00
18388;DHT22;9320;50.256;19.026;2023-06-22T07:58:53;35.80;57.60
18388;DHT22;9320;50.256;19.026;2023-06-22T08:01:21;35.30;55.60
18388;DHT22;9320;50.256;19.026;2023-06-22T08:03:49;34.10;56.80
18388;DHT22;9320;50.256;19.026;2023-06-22T08:06:18;32.80;58.00
18388;DHT22;9320;50.256;19.026;2023-06-22T08:08:46;32.60;61.30
18388;DHT22;9320;50.256;19.026;2023-06-22T08:11:15;32.30;59.80
18388;DHT22;9320;50.256;19.026;2023-06-22T08:13:43;31.80;61.30
18388;DHT22;9320;50.256;19.026;2023-06-22T08:16:13;31.40;62.00
18388;DHT22;9320;50.256;19.026;2023-06-22T08:18:41;31.30;61.80
18388;DHT22;9320;50.256;19.026;2023-06-22T08:21:09;32.10;61.80
18388;DHT22;9320;50.256;19.026;2023-06-22T08:23:38;32.50;59.70
18388;DHT22;9320;50.256;19.026;2023-06-22T08:26:06;33.10;59.40
18388;DHT22;9320;50.256;19.026;2023-06-22T08:28:34;33.40;57.20
18388;DHT22;9320;50.256;19.026;2023-06-22T08:31:03;31.90;58.50
18388;DHT22;9320;50.256;19.026;2023-06-22T08:33:32;30.60;61.20
18388;DHT22;9320;50.256;19.026;2023-06-22T08:36:00;31.20;62.80
18388;DHT22;9320;50.256;19.026;2023-06-22T08:38:28;32.60;58.80
18388;DHT22;9320;50.256;19.026;2023-06-22T08:40:56;34.20;56.80
18388;DHT22;9320;50.256;19.026;2023-06-22T08:43:24;35.90;52.10
18388;DHT22;9320;50.256;19.026;2023-06-22T08:45:52;38.20;48.20
18388;DHT22;9320;50.256;19.026;2023-06-22T08:48:20;38.40;48.60
18388;DHT22;9320;50.256;19.026;2023-06-22T08:50:50;40.40;44.30
18388;DHT22;9320;50.256;19.026;2023-06-22T08:53:18;41.80;41.00
18388;DHT22;9320;50.256;19.026;2023-06-22T08:55:46;42.60;40.10
18388;DHT22;9320;50.256;19.026;2023-06-22T08:58:14;41.70;40.80
18388;DHT22;9320;50.256;19.026;2023-06-22T09:00:42;41.20;40.60
18388;DHT22;9320;50.256;19.026;2023-06-22T09:03:10;39.40;43.10
18388;DHT22;9320;50.256;19.026;2023-06-22T09:05:39;38.20;45.50
18388;DHT22;9320;50.256;19.026;2023-06-22T09:08:08;36.80;46.30
18388;DHT22;9320;50.256;19.026;2023-06-22T09:10:36;36.50;48.40
18388;DHT22;9320;50.256;19.026;2023-06-22T09:13:04;36.70;48.70
18388;DHT22;9320;50.256;19.026;2023-06-22T09:15:32;36.70;47.70
18388;DHT22;9320;50.256;19.026;2023-06-22T09:18:01;37.00;46.10
18388;DHT22;9320;50.256;19.026;2023-06-22T09:20:29;37.60;45.50
18388;DHT22;9320;50.256;19.026;2023-06-22T09:22:58;39.20;43.90
18388;DHT22;9320;50.256;19.026;2023-06-22T09:25:27;38.90;43.80
18388;DHT22;9320;50.256;19.026;2023-06-22T09:27:56;38.10;44.10
18388;DHT22;9320;50.256;19.026;2023-06-22T09:30:24;36.80;46.00
18388;DHT22;9320;50.256;19.026;2023-06-22T09:32:52;35.50;48.40
18388;DHT22;9320;50.256;19.026;2023-06-22T09:35:21;38.20;47.80
18388;DHT22;9320;50.256;19.026;2023-06-22T09:37:49;42.10;41.60
18388;DHT22;9320;50.256;19.026;2023-06-22T09:40:19;42.30;39.00
18388;DHT22;9320;50.256;19.026;2023-06-22T09:42:49;44.40;36.60
18388;DHT22;9320;50.256;19.026;2023-06-22T09:45:17;46.30;33.50
18388;DHT22;9320;50.256;19.026;2023-06-22T09:47:45;47.20;31.60
18388;DHT22;9320;50.256;19.026;2023-06-22T09:50:13;47.80;30.70
18388;DHT22;9320;50.256;19.026;2023-06-22T09:52:41;48.00;31.00
18388;DHT22;9320;50.256;19.026;2023-06-22T09:55:14;49.40;30.50
18388;DHT22;9320;50.256;19.026;2023-06-22T09:57:43;49.60;29.70
18388;DHT22;9320;50.256;19.026;2023-06-22T10:00:14;49.10;29.70
18388;DHT22;9320;50.256;19.026;2023-06-22T10:02:43;49.20;29.10
18388;DHT22;9320;50.256;19.026;2023-06-22T10:05:12;48.10;28.80
18388;DHT22;9320;50.256;19.026;2023-06-22T10:07:40;44.60;30.10
18388;DHT22;9320;50.256;19.026;2023-06-22T10:10:11;45.00;29.80
18388;DHT22;9320;50.256;19.026;2023-06-22T10:12:42;45.10;29.90
18388;DHT22;9320;50.256;19.026;2023-06-22T10:15:12;45.30;32.10
18388;DHT22;9320;50.256;19.026;2023-06-22T10:17:41;45.50;31.20
18388;DHT22;9320;50.256;19.026;2023-06-22T10:20:09;44.70;31.70
18388;DHT22;9320;50.256;19.026;2023-06-22T10:22:41;45.90;31.90
18388;DHT22;9320;50.256;19.026;2023-06-22T10:25:11;46.90;30.50
18388;DHT22;9320;50.256;19.026;2023-06-22T10:27:40;47.40;30.00
18388;DHT22;9320;50.256;19.026;2023-06-22T10:30:09;46.40;31.70
18388;DHT22;9320;50.256;19.026;2023-06-22T10:32:41;44.90;33.00
18388;DHT22;9320;50.256;19.026;2023-06-22T10:35:10;42.30;33.80
18388;DHT22;9320;50.256;19.026;2023-06-22T10:37:41;39.90;37.70
18388;DHT22;9320;50.256;19.026;2023-06-22T10:40:11;37.00;40.40
18388;DHT22;9320;50.256;19.026;2023-06-22T10:42:39;35.60;43.40
18388;DHT22;9320;50.256;19.026;2023-06-22T10:45:09;34.30;45.70
18388;DHT22;9320;50.256;19.026;2023-06-22T10:47:37;33.90;46.70
18388;DHT22;9320;50.256;19.026;2023-06-22T10:50:08;33.70;48.10
18388;DHT22;9320;50.256;19.026;2023-06-22T10:52:36;33.50;47.40
18388;DHT22;9320;50.256;19.026;2023-06-22T10:55:05;33.00;48.50
18388;DHT22;9320;50.256;19.026;2023-06-22T10:57:33;33.00;49.10
18388;DHT22;9320;50.256;19.026;2023-06-22T11:00:01;32.90;48.60
18388;DHT22;9320;50.256;19.026;2023-06-22T11:02:32;32.80;49.50
18388;DHT22;9320;50.256;19.026;2023-06-22T11:05:01;32.80;49.50
18388;DHT22;9320;50.256;19.026;2023-06-22T11:07:31;32.10;50.10
18388;DHT22;9320;50.256;19.026;2023-06-22T11:09:59;32.10;51.40
18388;DHT22;9320;50.256;19.026;2023-06-22T11:12:28;32.30;51.20
18388;DHT22;9320;50.256;19.026;2023-06-22T11:14:56;32.50;51.20
18388;DHT22;9320;50.256;19.026;2023-06-22T11:17:25;32.80;50.90
18388;DHT22;9320;50.256;19.026;2023-06-22T11:19:53;32.60;51.20
18388;DHT22;9320;50.256;19.026;2023-06-22T11:22:21;32.20;51.50
18388;DHT22;9320;50.256;19.026;2023-06-22T11:24:51;32.30;51.00
18388;DHT22;9320;50.256;19.026;2023-06-22T11:27:19;31.80;52.20
18388;DHT22;9320;50.256;19.026;2023-06-22T11:29:47;31.50;53.30
18388;DHT22;9320;50.256;19.026;2023-06-22T11:32:16;31.40;53.30
18388;DHT22;9320;50.256;19.026;2023-06-22T11:34:44;31.30;53.20
18388;DHT22;9320;50.256;19.026;2023-06-22T11:37:12;31.60;53.20
18388;DHT22;9320;50.256;19.026;2023-06-22T11:39:40;31.80;52.60
18388;DHT22;9320;50.256;19.026;2023-06-22T11:42:20;32.00;52.70
18388;DHT22;9320;50.256;19.026;2023-06-22T11:44:50;31.90;52.90
18388;DHT22;9320;50.256;19.026;2023-06-22T11:47:18;32.10;51.50
18388;DHT22;9320;50.256;19.026;2023-06-22T11:49:46;32.20;49.60
18388;DHT22;9320;50.256;19.026;2023-06-22T11:52:14;32.30;48.90
18388;DHT22;9320;50.256;19.026;2023-06-22T11:54:44;32.10;48.50
18388;DHT22;9320;50.256;19.026;2023-06-22T11:57:12;31.90;49.00
18388;DHT22;9320;50.256;19.026;2023-06-22T11:59:42;31.90;49.60
18388;DHT22;9320;50.256;19.026;2023-06-22T12:02:10;31.90;49.90
18388;DHT22;9320;50.256;19.026;2023-06-22T12:04:38;32.10;49.80
18388;DHT22;9320;50.256;19.026;2023-06-22T12:07:06;32.20;49.30
18388;DHT22;9320;50.256;19.026;2023-06-22T12:09:34;32.00;48.90
18388;DHT22;9320;50.256;19.026;2023-06-22T12:12:02;31.90;50.90
18388;DHT22;9320;50.256;19.026;2023-06-22T12:14:33;31.90;51.40
18388;DHT22;9320;50.256;19.026;2023-06-22T12:17:02;31.90;51.70
18388;DHT22;9320;50.256;19.026;2023-06-22T12:19:30;31.70;52.40
18388;DHT22;9320;50.256;19.026;2023-06-22T12:21:58;32.00;52.20
18388;DHT22;9320;50.256;19.026;2023-06-22T12:24:26;32.30;51.40
18388;DHT22;9320;50.256;19.026;2023-06-22T12:26:54;32.20;50.90
18388;DHT22;9320;50.256;19.026;2023-06-22T12:29:22;32.20;51.20
18388;DHT22;9320;50.256;19.026;2023-06-22T12:31:50;32.50;51.50
18388;DHT22;9320;50.256;19.026;2023-06-22T12:34:20;32.50;50.70
18388;DHT22;9320;50.256;19.026;2023-06-22T12:36:48;32.60;50.80
18388;DHT22;9320;50.256;19.026;2023-06-22T12:39:16;32.30;51.10
18388;DHT22;9320;50.256;19.026;2023-06-22T12:41:44;32.30;51.40
18388;DHT22;9320;50.256;19.026;2023-06-22T12:44:12;32.30;51.00
18388;DHT22;9320;50.256;19.026;2023-06-22T12:46:40;32.30;51.00
18388;DHT22;9320;50.256;19.026;2023-06-22T12:49:08;32.40;50.50
18388;DHT22;9320;50.256;19.026;2023-06-22T12:51:41;32.40;51.10
18388;DHT22;9320;50.256;19.026;2023-06-22T12:54:10;32.40;50.90
18388;DHT22;9320;50.256;19.026;2023-06-22T12:56:38;32.30;51.40
18388;DHT22;9320;50.256;19.026;2023-06-22T12:59:07;32.20;51.40
18388;DHT22;9320;50.256;19.026;2023-06-22T13:01:35;31.90;51.30
18388;DHT22;9320;50.256;19.026;2023-06-22T13:04:04;31.80;51.90
18388;DHT22;9320;50.256;19.026;2023-06-22T13:06:32;31.30;52.70
18388;DHT22;9320;50.256;19.026;2023-06-22T13:09:01;31.20;53.20
18388;DHT22;9320;50.256;19.026;2023-06-22T13:11:34;30.80;54.40
18388;DHT22;9320;50.256;19.026;2023-06-22T13:14:02;31.00;53.90
18388;DHT22;9320;50.256;19.026;2023-06-22T13:16:32;31.10;53.70
18388;DHT22;9320;50.256;19.026;2023-06-22T13:19:01;31.30;53.10
18388;DHT22;9320;50.256;19.026;2023-06-22T13:21:29;31.00;53.40
18388;DHT22;9320;50.256;19.026;2023-06-22T13:23:57;31.00;53.10
18388;DHT22;9320;50.256;19.026;2023-06-22T13:26:27;30.90;53.50
18388;DHT22;9320;50.256;19.026;2023-06-22T13:28:56;31.10;53.20
18388;DHT22;9320;50.256;19.026;2023-06-22T13:31:24;31.20;53.50
18388;DHT22;9320;50.256;19.026;2023-06-22T13:33:52;31.10;53.40
18388;DHT22;9320;50.256;19.026;2023-06-22T13:36:20;31.00;53.90
18388;DHT22;9320;50.256;19.026;2023-06-22T13:38:50;31.00;53.90
18388;DHT22;9320;50.256;19.026;2023-06-22T13:41:18;31.00;53.60
18388;DHT22;9320;50.256;19.026;2023-06-22T13:43:47;31.00;54.10
18388;DHT22;9320;50.256;19.026;2023-06-22T13:46:15;31.00;54.10
18388;DHT22;9320;50.256;19.026;2023-06-22T13:48:43;31.00;54.10
18388;DHT22;9320;50.256;19.026;2023-06-22T13:51:13;31.10;54.40
18388;DHT22;9320;50.256;19.026;2023-06-22T13:53:41;31.00;54.20
18388;DHT22;9320;50.256;19.026;2023-06-22T13:56:09;31.10;53.80
18388;DHT22;9320;50.256;19.026;2023-06-22T13:58:37;31.10;54.40
18388;DHT22;9320;50.256;19.026;2023-06-22T14:01:06;31.10;54.10
18388;DHT22;9320;50.256;19.026;2023-06-22T14:03:42;31.20;54.10
18388;DHT22;9320;50.256;19.026;2023-06-22T14:06:12;31.20;53.50
18388;DHT22;9320;50.256;19.026;2023-06-22T14:08:40;31.10;54.40
18388;DHT22;9320;50.256;19.026;2023-06-22T14:11:08;30.90;53.90
18388;DHT22;9320;50.256;19.026;2023-06-22T14:13:36;30.90;54.50
18388;DHT22;9320;50.256;19.026;2023-06-22T14:16:06;30.90;54.30
18388;DHT22;9320;50.256;19.026;2023-06-22T14:18:34;30.90;54.50
18388;DHT22;9320;50.256;19.026;2023-06-22T14:21:02;31.00;54.00
18388;DHT22;9320;50.256;19.026;2023-06-22T14:23:30;31.00;54.40
18388;DHT22;9320;50.256;19.026;2023-06-22T14:25:58;31.10;54.80
18388;DHT22;9320;50.256;19.026;2023-06-22T14:28:26;31.10;53.60
18388;DHT22;9320;50.256;19.026;2023-06-22T14:30:54;31.10;54.00
18388;DHT22;9320;50.256;19.026;2023-06-22T14:33:24;31.10;53.90
18388;DHT22;9320;50.256;19.026;2023-06-22T14:35:52;31.10;53.80
18388;DHT22;9320;50.256;19.026;2023-06-22T14:38:20;31.30;53.50
18388;DHT22;9320;50.256;19.026;2023-06-22T14:40:49;31.20;53.70
18388;DHT22;9320;50.256;19.026;2023-06-22T14:43:37;31.30;53.20
18388;DHT22;9320;50.256;19.026;2023-06-22T14:46:05;31.20;53.00
18388;DHT22;9320;50.256;19.026;2023-06-22T14:48:34;31.10;53.60
18388;DHT22;9320;50.256;19.026;2023-06-22T14:51:02;30.70;53.90
18388;DHT22;9320;50.256;19.026;2023-06-22T14:53:30;30.70;54.40
18388;DHT22;9320;50.256;19.026;2023-06-22T14:55:58;30.80;54.60
18388;DHT22;9320;50.256;19.026;2023-06-22T14:58:28;30.80;53.90
18388;DHT22;9320;50.256;19.026;2023-06-22T15:01:00;30.70;54.40
18388;DHT22;9320;50.256;19.026;2023-06-22T15:03:29;30.40;54.90
18388;DHT22;9320;50.256;19.026;2023-06-22T15:06:00;30.30;55.40
18388;DHT22;9320;50.256;19.026;2023-06-22T15:08:29;30.20;55.50
18388;DHT22;9320;50.256;19.026;2023-06-22T15:10:59;30.20;55.60
18388;DHT22;9320;50.256;19.026;2023-06-22T15:13:29;30.20;55.70
18388;DHT22;9320;50.256;19.026;2023-06-22T15:16:00;30.10;55.50
18388;DHT22;9320;50.256;19.026;2023-06-22T15:18:29;30.00;55.00
18388;DHT22;9320;50.256;19.026;2023-06-22T15:20:58;30.00;55.10
18388;DHT22;9320;50.256;19.026;2023-06-22T15:23:30;30.00;55.00
18388;DHT22;9320;50.256;19.026;2023-06-22T15:25:58;30.00;55.10
18388;DHT22;9320;50.256;19.026;2023-06-22T15:28:28;29.90;55.30
18388;DHT22;9320;50.256;19.026;2023-06-22T15:30:58;29.80;55.30
18388;DHT22;9320;50.256;19.026;2023-06-22T15:33:27;29.80;55.10
18388;DHT22;9320;50.256;19.026;2023-06-22T15:35:55;29.90;55.20
18388;DHT22;9320;50.256;19.026;2023-06-22T15:38:23;29.90;55.30
18388;DHT22;9320;50.256;19.026;2023-06-22T15:40:53;29.90;55.20